Sugar Grove Lake, Ohio
Current Conditions -  °F | °C
As of 11:53 PM on Tuesday 21 Oct 2014 (Local Time) from KMNN Reporting Station
Haze Haze  
Wind Chill: 37°   Ceiling: 900
Heat Index: 43°   Visibility: 4mi
Dew Point: 40°   Wind: 10mph
Humidity: 89%   Direction: 340°NNW
Pressure: 30.16"   Gusts: NA
Location:  40.712°N, 82.796°W
Report Text: KMNN 220353Z AUTO 34009KT 4SM BR OVC009 06/04 A3016 RMK AO2 CIG 005V012 SLP219 T00610044 TSNO
Loading
Personal Weather Stations






























Interactive Weather Map
Tropical Storm Tracking
New forecast layout! Learn more

10-Day Weather Forecast

Advertisements
Track Severe Weather on mobile